Nearby METAR Reports

 

EGWC - Cosford Raf, United Kingdom
Distance from station: SSW 22km
Updated: 19/07/2019 13:50
NOT Current
Mostly cloudy
Mostly cloudy
 Wind from S
Wind: S 9 mph , 15 km/h
Temperature: 18°C
Dew Point: 16°C
Humidity: 88%
Barometer: 1007 hPa
Clouds: Mostly cloudy
Visibility: 6 miles , 10 km
Cloud details: Few Clouds 213 m
Mostly cloudy 305 m
2019/07/19 12:50 EGWC 191250Z 18008KT 9999 FEW007 BKN010 18/16 Q1007 GRN
EGOS - Shawbury Raf, United Kingdom
Distance from station: W 37km
Updated: 22/07/2019 01:50
Overcast
Overcast
 Wind from SSW
Wind: SSW 14 mph , 22 km/h
Temperature: 19°C
Dew Point: 15°C
Humidity: 78%
Barometer: 1017 hPa
Clouds: Overcast
Visibility: 6 miles , 10 km
Cloud details: Overcast 518 m
2019/07/22 00:50 EGOS 220050Z AUTO 20012KT 9999 OVC017/// 19/15 Q1017
 
EGBB - Birmingham Airpo, United Kingdom
Distance from station: SE 44km
Updated: 22/07/2019 02:20
Mostly cloudy
Mostly cloudy
 Wind from SSW
Wind: SSW 10 mph , 17 km/h
Temperature: 18°C
Dew Point: 15°C
Humidity: 83%
Barometer: 1018 hPa
Clouds: Mostly cloudy
Visibility: 6 miles , 10 km
Cloud details: Mostly cloudy 549 m
2019/07/22 01:20 EGBB 220120Z 21009KT 170V250 9999 BKN018 18/15 Q1018
EGNX - East Midlands, United Kingdom
Distance from station: E 54km
Updated: 22/07/2019 02:20
Partly cloudy
Partly cloudy
 Wind from SSW
Wind: SSW 15 mph , 24 km/h
Temperature: 18°C
Dew Point: 15°C
Humidity: 83%
Barometer: 1017 hPa
Clouds: Partly cloudy
Visibility: 6 miles , 10 km
Cloud details: Few Clouds 549 m
Partly cloudy 1036 m
2019/07/22 01:20 EGNX 220120Z 21013KT 9999 FEW018 SCT034 18/15 Q1017
 
EGCC - Manchester Intl, United Kingdom
Distance from station: N 63km
Updated: 22/07/2019 02:20
Overcast
Overcast
 Wind from S
Wind: S 9 mph , 15 km/h
Temperature: 18°C
Dew Point: 16°C
Humidity: 88%
Barometer: 1015 hPa
Clouds: Overcast
Visibility: 6 miles , 10 km
Cloud details: Overcast 640 m
2019/07/22 01:20 EGCC 220120Z AUTO 19008KT 140V220 9999 OVC021 18/16 Q1015
EGBE - Coventry Airport, United Kingdom
Distance from station: SE 65km
Updated: 18/07/2017 14:50
NOT Current
Clear
Clear
 Wind from E
Wind: E 16 mph , 26 km/h
Temperature: 27°C
Heat Index: 27°C
Dew Point: 14°C
Humidity: 45%
Barometer: 1015 hPa
Summary: Clear
Visibility: greater than 7 miles , 10 km
2017/07/18 13:50 EGBE 181350Z 10014KT 060V120 CAVOK 27/14 Q1015
 
EGNR - Hawarden (aut), United Kingdom
Distance from station: NW 70km
Updated: 21/07/2019 18:50
NOT Current
Partly cloudy
Partly cloudy
 Wind from SSW
Wind: SSW 14 mph , 22 km/h
Temperature: 21°C
Dew Point: 13°C
Humidity: 60%
Barometer: 1017 hPa
Clouds: Partly cloudy
Visibility: 6 miles , 10 km
Cloud details: Few Clouds 610 m
Partly cloudy 1067 m
2019/07/21 17:50 EGNR 211750Z 20012KT 9999 FEW020 SCT035 21/13 Q1017
EGGP - Liverpool Airpor, United Kingdom
Distance from station: NW 76km
Updated: 22/07/2019 02:20
Mostly cloudy
Mostly cloudy
 Wind from SSW
Wind: SSW 12 mph , 19 km/h
Temperature: 20°C
Dew Point: 18°C
Humidity: 88%
Barometer: 1015 hPa
Clouds: Mostly cloudy
Visibility: 6 miles , 10 km
Cloud details: Mostly cloudy 488 m
2019/07/22 01:20 EGGP 220120Z 20010KT 9999 BKN016 20/18 Q1015